Time;durP1;ratioP1;P1;durP2;ratioP2;P2;SDS_P1;SDS_P2;PMS_P1;PMS_P2;Temp;Humidity;BMP_temperature;BMP_pressure;BME280_temperature;BME280_humidity;BME280_pressure;Samples;Min_cycle;Max_cycle;Signal;HPM_P1;HPM_P2
2022/04/24 00:00:06;;;;;;;7.75;1.48;;;;;;;11.71;63.31;96999.31;5091313;28;20028;-50
2022/04/24 00:02:32;;;;;;;5.97;1.50;;;;;;;11.67;63.40;96986.91;5091327;28;20421;-50
2022/04/24 00:04:58;;;;;;;3.50;0.82;;;;;;;11.66;63.36;96969.56;5092659;28;20020;-49
2022/04/24 00:07:24;;;;;;;7.22;1.33;;;;;;;11.67;63.79;96986.91;5092560;28;20389;-49
2022/04/24 00:09:50;;;;;;;7.75;1.55;;;;;;;11.68;63.42;96978.78;5092557;28;20036;-49
2022/04/24 00:12:16;;;;;;;4.97;1.30;;;;;;;11.67;63.38;96977.22;5091492;28;20025;-49
2022/04/24 00:14:44;;;;;;;5.45;1.30;;;;;;;11.68;63.18;96978.00;5092481;28;20031;-49
2022/04/24 00:17:10;;;;;;;5.43;1.67;;;;;;;11.62;63.33;96979.00;5092437;28;20022;-50
2022/04/24 00:19:36;;;;;;;4.57;1.33;;;;;;;11.61;63.25;96983.47;5092459;28;20024;-49
2022/04/24 00:22:02;;;;;;;5.07;1.02;;;;;;;11.60;63.29;96989.75;5092256;28;20032;-50
2022/04/24 00:24:28;;;;;;;5.47;1.35;;;;;;;11.62;63.18;96990.28;5092306;28;20102;-50
2022/04/24 00:26:54;;;;;;;4.22;1.02;;;;;;;11.65;63.05;96992.44;5092266;28;20027;-49
2022/04/24 00:29:20;;;;;;;2.45;0.90;;;;;;;11.69;62.62;96997.97;5090843;28;20024;-49
2022/04/24 00:31:46;;;;;;;4.60;1.15;;;;;;;11.73;62.48;97004.28;5090751;28;20559;-49
2022/04/24 00:34:12;;;;;;;2.75;0.70;;;;;;;11.71;62.18;97007.19;5090774;28;20081;-49
2022/04/24 00:36:38;;;;;;;4.60;1.42;;;;;;;11.72;62.05;97005.34;5090530;28;20044;-49
2022/04/24 00:39:05;;;;;;;2.67;0.90;;;;;;;11.77;62.13;97003.56;5090808;28;20028;-49
2022/04/24 00:41:31;;;;;;;3.95;1.10;;;;;;;11.81;61.80;97001.22;5092000;28;20039;-50
2022/04/24 00:43:56;;;;;;;3.50;0.95;;;;;;;11.83;61.66;96999.16;5092039;28;20020;-49
2022/04/24 00:46:43;;;;;;;3.17;0.90;;;;;;;11.73;61.53;96988.53;5090616;28;20024;-50
2022/04/24 00:49:13;;;;;;;3.55;1.73;;;;;;;11.67;61.62;96984.28;5091790;28;20031;-49
2022/04/24 00:51:40;;;;;;;3.72;1.17;;;;;;;11.43;61.47;96983.78;5090807;28;20043;-50
2022/04/24 00:54:10;;;;;;;7.13;3.03;;;;;;;11.19;62.36;96973.56;5091921;28;20016;-50
2022/04/24 00:56:41;;;;;;;10.40;8.55;;;;;;;11.07;62.86;96965.03;5090490;28;20028;-50
2022/04/24 00:59:08;;;;;;;5.13;3.13;;;;;;;10.94;63.17;96992.44;5091893;28;20027;-50
2022/04/24 01:01:36;;;;;;;3.63;1.50;;;;;;;10.90;63.13;96993.97;5090460;28;20561;-49
2022/04/24 01:04:05;;;;;;;2.60;1.25;;;;;;;10.86;63.43;96996.28;5091813;28;20016;-49
2022/04/24 01:06:33;;;;;;;2.25;1.00;;;;;;;10.87;63.45;96984.75;5091742;28;20024;-50
2022/04/24 01:09:20;;;;;;;3.28;0.73;;;;;;;10.73;63.26;96988.78;5091741;28;20028;-50
2022/04/24 01:11:51;;;;;;;8.52;2.30;;;;;;;10.63;63.84;97010.44;5090373;28;20698;-49
2022/04/24 01:14:19;;;;;;;2.30;1.17;;;;;;;10.64;63.87;96998.09;5091982;28;20024;-49
2022/04/24 01:16:46;;;;;;;1.58;0.70;;;;;;;10.55;63.48;97014.25;5091679;28;20024;-49
2022/04/24 01:19:12;;;;;;;1.67;0.90;;;;;;;10.42;63.29;97000.69;5091677;28;20012;-50
2022/04/24 01:21:41;;;;;;;2.45;1.23;;;;;;;10.32;64.08;96994.28;5090282;28;20505;-50
2022/04/24 01:24:08;;;;;;;2.38;0.90;;;;;;;10.41;63.46;96993.84;5093063;28;20081;-49
2022/04/24 01:26:35;;;;;;;4.00;0.70;;;;;;;10.42;63.38;96985.72;5095655;28;20028;-48
2022/04/24 01:29:02;;;;;;;4.97;0.60;;;;;;;10.41;63.21;96989.41;5095624;28;20355;-48
2022/04/24 01:31:28;;;;;;;1.77;0.70;;;;;;;10.39;62.80;97015.84;5094154;28;20020;-49
2022/04/24 01:33:54;;;;;;;4.53;2.17;;;;;;;10.30;63.93;97003.38;5095494;28;20012;-50
2022/04/24 01:36:19;;;;;;;3.03;1.83;;;;;;;10.29;63.25;97007.81;5093859;28;20126;-50
2022/04/24 01:38:45;;;;;;;2.78;1.20;;;;;;;10.22;63.92;97003.75;5094162;28;20401;-50
2022/04/24 01:41:11;;;;;;;3.53;1.55;;;;;;;10.24;64.78;97020.03;5095330;28;20031;-50
2022/04/24 01:43:37;;;;;;;3.83;0.90;;;;;;;10.21;63.65;97002.97;5095355;28;20016;-48
2022/04/24 01:46:06;;;;;;;3.88;0.75;;;;;;;10.16;64.32;96995.84;5095214;28;20024;-49
2022/04/24 01:48:35;;;;;;;2.38;0.80;;;;;;;10.17;64.56;97001.88;5093841;28;20031;-50
2022/04/24 01:51:05;;;;;;;1.60;0.60;;;;;;;10.14;64.30;97005.75;5095064;28;20024;-49
2022/04/24 01:53:32;;;;;;;7.38;2.35;;;;;;;10.20;64.71;96999.56;5095712;28;20093;-49
2022/04/24 01:55:59;;;;;;;3.67;0.82;;;;;;;10.31;64.67;96986.63;5095040;28;20024;-49
2022/04/24 01:58:26;;;;;;;0.60;0.47;;;;;;;10.33;64.22;97013.41;5093710;28;20028;-49
2022/04/24 02:00:52;;;;;;;0.65;0.43;;;;;;;10.31;64.25;97012.84;5094990;28;20103;-50
2022/04/24 02:03:19;;;;;;;2.55;0.65;;;;;;;10.20;64.40;97015.28;5093610;28;20030;-49
2022/04/24 02:05:45;;;;;;;3.28;0.57;;;;;;;10.14;64.32;97018.88;5094872;28;20024;-51
2022/04/24 02:08:11;;;;;;;1.92;0.70;;;;;;;10.11;64.95;97016.72;5094828;28;20508;-50
2022/04/24 02:10:37;;;;;;;0.93;0.47;;;;;;;10.28;64.87;97013.28;5094791;28;20070;-50
2022/04/24 02:13:03;;;;;;;0.50;0.50;;;;;;;10.30;64.19;97040.09;5093410;28;20070;-49
2022/04/24 02:15:29;;;;;;;1.50;0.75;;;;;;;10.23;64.10;97024.50;5093325;28;20052;-50
2022/04/24 02:17:56;;;;;;;4.40;0.88;;;;;;;10.09;64.63;97023.22;5094708;28;20027;-49
2022/04/24 02:20:22;;;;;;;1.38;0.47;;;;;;;10.05;65.00;97030.78;5093231;28;20501;-50
2022/04/24 02:22:48;;;;;;;0.40;0.40;;;;;;;10.04;64.94;97029.19;5093526;28;20032;-49
2022/04/24 02:25:15;;;;;;;2.92;0.40;;;;;;;10.00;64.56;97010.53;5093176;28;20035;-49
2022/04/24 02:27:41;;;;;;;1.40;0.77;;;;;;;9.93;64.85;97035.28;5094508;28;20047;-48
2022/04/24 02:30:07;;;;;;;1.52;0.45;;;;;;;9.82;65.05;97015.19;5092992;28;20501;-49
2022/04/24 02:32:33;;;;;;;1.55;1.05;;;;;;;9.70;66.03;97016.06;5093043;28;20039;-49
2022/04/24 02:34:59;;;;;;;0.98;0.50;;;;;;;9.72;65.95;97010.59;5093564;28;20028;-50
2022/04/24 02:37:25;;;;;;;7.47;1.23;;;;;;;9.72;65.73;97021.06;5092515;28;20052;-49
2022/04/24 02:39:52;;;;;;;5.28;1.33;;;;;;;9.69;65.68;97035.41;5094240;28;20023;-50
2022/04/24 02:42:18;;;;;;;2.17;0.70;;;;;;;9.72;65.89;97028.91;5094178;28;20036;-49
2022/04/24 02:44:44;;;;;;;0.60;0.43;;;;;;;9.77;65.86;97044.72;5094208;28;20024;-49
2022/04/24 02:47:10;;;;;;;0.85;0.68;;;;;;;9.83;65.50;97028.03;5094009;28;20055;-49
2022/04/24 02:49:36;;;;;;;3.30;0.57;;;;;;;9.79;65.48;97038.19;5094094;28;20027;-49
2022/04/24 02:52:03;;;;;;;2.08;0.50;;;;;;;9.84;65.55;97053.22;5093879;28;20020;-49
2022/04/24 02:54:28;;;;;;;2.38;0.73;;;;;;;9.96;65.79;97048.72;5093932;28;20051;-49
2022/04/24 02:56:54;;;;;;;2.03;0.65;;;;;;;10.07;65.21;97048.88;5093906;28;20029;-49
2022/04/24 02:59:20;;;;;;;3.13;0.55;;;;;;;10.11;64.90;97045.53;5092852;28;20389;-49
2022/04/24 03:01:46;;;;;;;1.40;0.90;;;;;;;10.14;64.49;97063.44;5093800;28;20077;-48
2022/04/24 03:04:12;;;;;;;3.63;1.25;;;;;;;10.15;64.47;97072.88;5093739;28;20031;-50
2022/04/24 03:06:38;;;;;;;6.78;1.27;;;;;;;10.19;64.80;97074.00;5092384;28;20052;-49
2022/04/24 03:09:05;;;;;;;2.17;0.93;;;;;;;10.30;64.82;97071.56;5093608;28;20125;-50
2022/04/24 03:11:31;;;;;;;3.50;1.13;;;;;;;10.41;64.28;97080.41;5092210;28;20020;-49
2022/04/24 03:13:57;;;;;;;3.03;0.88;;;;;;;10.41;64.10;97086.44;5093552;28;20020;-50
2022/04/24 03:16:22;;;;;;;2.65;0.60;;;;;;;10.46;64.08;97090.94;5092157;28;20035;-50
2022/04/24 03:18:48;;;;;;;2.70;1.10;;;;;;;10.59;63.86;97088.81;5093514;28;20016;-49
2022/04/24 03:21:14;;;;;;;2.00;0.50;;;;;;;10.76;63.06;97095.84;5092068;28;20032;-49
2022/04/24 03:23:40;;;;;;;2.50;0.40;;;;;;;10.79;62.64;97098.81;5093348;28;20027;-50
2022/04/24 03:26:06;;;;;;;5.38;0.90;;;;;;;10.74;63.11;97095.31;5091972;28;20028;-51
2022/04/24 03:28:31;;;;;;;1.88;1.67;;;;;;;10.79;62.59;97104.06;5093315;28;20016;-50
2022/04/24 03:30:57;;;;;;;4.10;1.70;;;;;;;10.86;62.67;97093.38;5093095;28;20024;-49
2022/04/24 03:33:23;;;;;;;1.42;1.10;;;;;;;10.93;62.52;97093.22;5091909;28;20024;-50
2022/04/24 03:35:49;;;;;;;3.60;0.80;;;;;;;10.95;62.32;97091.94;5093126;28;20024;-50
2022/04/24 03:38:14;;;;;;;4.60;1.25;;;;;;;11.00;62.43;97096.47;5091587;28;20051;-49
2022/04/24 03:40:40;;;;;;;2.92;1.05;;;;;;;10.96;61.90;97083.03;5093020;28;20028;-49
2022/04/24 03:43:06;;;;;;;3.35;0.90;;;;;;;10.89;62.39;97098.16;5091690;28;20024;-49
2022/04/24 03:45:31;;;;;;;2.53;0.60;;;;;;;10.85;62.13;97102.31;5092949;28;20386;-50
2022/04/24 03:47:57;;;;;;;1.73;0.90;;;;;;;10.83;62.41;97095.72;5092756;28;20020;-50
2022/04/24 03:50:23;;;;;;;0.40;0.40;;;;;;;10.83;62.37;97109.63;5092786;28;20027;-48
2022/04/24 03:52:48;;;;;;;3.95;0.85;;;;;;;10.87;62.18;97100.22;5092823;28;20522;-50
2022/04/24 03:55:14;;;;;;;2.63;0.60;;;;;;;10.92;62.12;97097.66;5091429;28;20023;-50
2022/04/24 03:57:40;;;;;;;5.68;0.80;;;;;;;10.94;62.24;97100.06;5092729;28;20091;-49
2022/04/24 04:00:07;;;;;;;2.95;0.60;;;;;;;11.03;61.82;97100.44;5091290;28;20019;-49
2022/04/24 04:02:42;;;;;;;4.28;0.68;;;;;;;11.03;61.67;97093.38;5091350;28;20028;-50
2022/04/24 04:05:08;;;;;;;1.92;0.68;;;;;;;11.10;61.58;97091.34;5092630;28;20090;-50
2022/04/24 04:07:34;;;;;;;3.72;0.60;;;;;;;11.11;61.66;97097.41;5092614;28;20028;-50
2022/04/24 04:10:00;;;;;;;0.68;0.45;;;;;;;11.03;61.56;97088.13;5092502;28;20024;-50
2022/04/24 04:12:29;;;;;;;2.03;0.50;;;;;;;11.02;61.73;97102.25;5092355;28;20031;-49
2022/04/24 04:14:55;;;;;;;2.60;0.47;;;;;;;10.98;61.88;97101.94;5092393;28;20027;-49
2022/04/24 04:17:20;;;;;;;1.65;0.55;;;;;;;10.97;61.67;97103.00;5092397;28;20020;-49
2022/04/24 04:19:46;;;;;;;2.80;0.60;;;;;;;10.97;61.89;97104.84;5091044;28;20046;-50
2022/04/24 04:22:12;;;;;;;0.43;0.35;;;;;;;10.99;61.22;97097.50;5090936;28;20024;-49
2022/04/24 04:24:38;;;;;;;1.77;0.40;;;;;;;10.98;61.09;97107.19;5090954;28;20501;-49
2022/04/24 04:27:03;;;;;;;0.85;0.43;;;;;;;10.91;61.22;97109.22;5092229;28;20020;-50
2022/04/24 04:29:29;;;;;;;5.80;1.13;;;;;;;10.83;61.23;97114.88;5092204;28;20508;-49
2022/04/24 04:31:55;;;;;;;3.17;0.77;;;;;;;10.82;61.44;97091.50;5092043;28;20038;-50
2022/04/24 04:34:21;;;;;;;1.75;0.70;;;;;;;10.68;61.45;97115.41;5092184;28;20481;-49
2022/04/24 04:36:47;;;;;;;1.20;0.50;;;;;;;10.66;61.68;97116.69;5091741;28;20524;-50
2022/04/24 04:39:13;;;;;;;0.82;0.40;;;;;;;10.70;61.52;97121.22;5092174;28;20024;-50
2022/04/24 04:41:40;;;;;;;0.63;0.25;;;;;;;10.72;61.74;97118.38;5092033;28;20031;-50
2022/04/24 04:44:06;;;;;;;0.38;0.30;;;;;;;10.77;61.20;97118.47;5091978;28;20024;-49
2022/04/24 04:46:31;;;;;;;4.97;0.75;;;;;;;10.79;61.23;97126.88;5091908;28;20398;-50
2022/04/24 04:48:57;;;;;;;1.40;0.40;;;;;;;10.80;60.88;97123.22;5090648;28;20032;-50
2022/04/24 04:51:23;;;;;;;0.80;0.38;;;;;;;10.76;61.17;97127.34;5091835;28;20016;-49
2022/04/24 04:53:51;;;;;;;1.02;0.50;;;;;;;10.74;61.03;97127.59;5091912;28;20569;-49
2022/04/24 04:56:17;;;;;;;5.70;0.70;;;;;;;10.69;61.25;97124.91;5091945;28;20371;-50
2022/04/24 04:58:43;;;;;;;0.75;0.30;;;;;;;10.68;61.21;97128.53;5093044;28;20028;-49
2022/04/24 05:01:09;;;;;;;0.45;0.30;;;;;;;10.60;61.54;97131.56;5098633;28;20024;-50
2022/04/24 05:03:34;;;;;;;3.58;1.15;;;;;;;10.67;61.72;97134.06;5097389;28;20024;-49
2022/04/24 05:06:00;;;;;;;0.55;0.38;;;;;;;10.83;60.87;97135.09;5097270;28;20460;-48
2022/04/24 05:08:26;;;;;;;2.38;0.40;;;;;;;10.81;61.01;97140.56;5098622;28;20016;-49
2022/04/24 05:10:52;;;;;;;1.45;0.70;;;;;;;10.78;60.72;97136.59;5098464;28;20016;-49
2022/04/24 05:13:18;;;;;;;4.28;1.02;;;;;;;10.84;60.64;97136.66;5098536;28;20020;-50
2022/04/24 05:15:43;;;;;;;0.60;0.50;;;;;;;10.88;60.69;97135.94;5098504;28;20020;-49
2022/04/24 05:18:09;;;;;;;1.05;0.30;;;;;;;10.96;60.26;97150.47;5098512;28;20063;-49
2022/04/24 05:20:35;;;;;;;1.45;0.52;;;;;;;10.94;60.11;97147.31;5098379;28;20565;-50
2022/04/24 05:23:05;;;;;;;1.88;0.60;;;;;;;10.92;60.55;97147.53;5097055;28;20039;-50
2022/04/24 05:25:32;;;;;;;1.13;0.40;;;;;;;11.00;60.07;97146.34;5098383;28;20048;-49
2022/04/24 05:27:57;;;;;;;0.55;0.38;;;;;;;11.07;60.04;97151.44;5097074;28;20073;-50
2022/04/24 05:30:23;;;;;;;0.85;0.20;;;;;;;11.15;59.65;97149.19;5098268;28;20036;-49
2022/04/24 05:32:51;;;;;;;1.40;1.02;;;;;;;11.15;59.68;97149.19;5098313;28;20493;-50
2022/04/24 05:35:17;;;;;;;0.30;0.30;;;;;;;11.23;59.42;97161.13;5098328;28;20031;-50
2022/04/24 05:37:45;;;;;;;0.38;0.38;;;;;;;11.33;59.30;97168.34;5097984;28;20052;-49
2022/04/24 05:40:11;;;;;;;2.45;1.20;;;;;;;11.45;59.14;97176.91;5098173;28;20020;-49
2022/04/24 05:43:03;;;;;;;4.05;0.40;;;;;;;11.50;58.90;97176.16;5096914;28;20024;-49
2022/04/24 05:45:33;;;;;;;5.10;1.10;;;;;;;11.47;58.83;97172.19;5095158;28;20046;-49
2022/04/24 05:47:59;;;;;;;2.28;1.05;;;;;;;11.55;58.54;97173.59;5096883;28;20032;-49
2022/04/24 05:50:25;;;;;;;0.35;0.35;;;;;;;11.54;58.41;97172.00;5098034;28;20459;-50
2022/04/24 05:52:55;;;;;;;1.15;0.63;;;;;;;11.46;58.82;97181.09;5098121;28;20099;-50
2022/04/24 05:55:21;;;;;;;1.00;0.30;;;;;;;11.49;58.23;97195.56;5096764;28;20035;-50
2022/04/24 05:57:49;;;;;;;2.92;0.90;;;;;;;11.42;58.73;97184.47;5098124;28;20028;-49
2022/04/24 06:00:16;;;;;;;3.58;0.60;;;;;;;11.45;58.38;97178.72;5098026;28;20413;-50
2022/04/24 06:02:43;;;;;;;0.25;0.20;;;;;;;11.43;58.63;97186.84;5098052;28;20090;-50
2022/04/24 06:05:12;;;;;;;4.55;1.00;;;;;;;11.43;58.76;97184.22;5097996;28;20348;-50
2022/04/24 06:07:39;;;;;;;1.75;0.50;;;;;;;11.47;58.55;97189.78;5097953;28;20343;-49
2022/04/24 06:10:06;;;;;;;1.90;0.38;;;;;;;11.53;58.22;97171.22;5096830;28;20056;-50
2022/04/24 06:12:32;;;;;;;1.63;0.40;;;;;;;11.51;58.49;97189.06;5094736;28;20024;-50
2022/04/24 06:15:05;;;;;;;0.52;0.30;;;;;;;11.53;58.34;97187.00;5094720;28;20077;-49
2022/04/24 06:17:30;;;;;;;0.60;0.22;;;;;;;11.47;58.13;97172.19;5094683;28;20032;-49
2022/04/24 06:19:56;;;;;;;4.57;0.65;;;;;;;11.38;58.71;97184.94;5094587;28;20028;-50
2022/04/24 06:22:22;;;;;;;1.05;0.52;;;;;;;11.34;59.30;97191.72;5094599;28;20080;-50
2022/04/24 06:24:50;;;;;;;2.03;1.08;;;;;;;11.45;59.46;97197.91;5094546;28;20121;-49
2022/04/24 06:27:16;;;;;;;0.50;0.30;;;;;;;11.54;58.30;97193.03;5094483;28;20106;-50
2022/04/24 06:29:42;;;;;;;1.00;0.32;;;;;;;11.48;58.82;97212.38;5093129;28;20028;-49
2022/04/24 06:32:08;;;;;;;1.23;0.25;;;;;;;11.52;58.64;97214.28;5094379;28;20555;-50
2022/04/24 06:34:36;;;;;;;2.03;0.93;;;;;;;11.57;58.75;97210.94;5094308;28;20043;-50
2022/04/24 06:37:02;;;;;;;2.38;1.00;;;;;;;11.68;58.79;97225.00;5094052;28;20040;-49
2022/04/24 06:39:28;;;;;;;1.20;0.30;;;;;;;11.86;58.03;97229.97;5092959;28;20038;-49
2022/04/24 06:41:53;;;;;;;1.48;0.75;;;;;;;11.97;57.89;97213.31;5094168;28;20501;-50
2022/04/24 06:44:20;;;;;;;1.92;0.80;;;;;;;12.19;57.23;97223.81;5094172;28;20397;-50
2022/04/24 06:46:46;;;;;;;1.40;0.73;;;;;;;12.48;56.41;97217.53;5094069;28;20020;-49
2022/04/24 06:49:12;;;;;;;1.15;0.50;;;;;;;12.55;55.67;97221.53;5094085;28;20016;-50
2022/04/24 06:51:38;;;;;;;1.70;0.80;;;;;;;12.52;55.64;97229.16;5092624;28;20023;-50
2022/04/24 06:54:04;;;;;;;1.60;0.47;;;;;;;12.49;55.76;97230.41;5093951;28;20520;-50
2022/04/24 06:56:29;;;;;;;0.50;0.40;;;;;;;12.53;56.04;97223.63;5093955;28;20505;-50
2022/04/24 06:58:55;;;;;;;2.60;0.80;;;;;;;12.52;55.74;97234.41;5093915;28;20501;-50
2022/04/24 07:01:22;;;;;;;0.95;0.52;;;;;;;12.50;55.93;97232.03;5093821;28;20024;-50
2022/04/24 07:03:48;;;;;;;0.63;0.30;;;;;;;12.43;55.66;97228.00;5093910;28;20107;-50
2022/04/24 07:06:14;;;;;;;1.75;0.38;;;;;;;12.43;56.10;97239.31;5093760;28;20430;-49
2022/04/24 07:08:40;;;;;;;1.38;0.35;;;;;;;12.55;55.95;97239.16;5093697;28;20096;-50
2022/04/24 07:11:06;;;;;;;0.88;0.43;;;;;;;12.75;55.61;97246.44;5093621;28;20020;-49
2022/04/24 07:13:32;;;;;;;0.40;0.30;;;;;;;12.85;55.28;97233.38;5092254;28;20101;-50
2022/04/24 07:15:58;;;;;;;2.90;1.02;;;;;;;12.78;55.36;97240.69;5092232;28;20056;-50
2022/04/24 07:18:24;;;;;;;0.70;0.40;;;;;;;12.79;54.98;97258.06;5092238;28;20077;-50
2022/04/24 07:20:50;;;;;;;1.17;0.50;;;;;;;12.79;54.92;97269.38;5093296;28;20028;-49
2022/04/24 07:23:16;;;;;;;0.85;0.30;;;;;;;12.92;54.18;97255.03;5091649;28;20439;-50
2022/04/24 07:25:46;;;;;;;3.13;0.80;;;;;;;12.92;54.40;97259.53;5093386;28;20020;-50
2022/04/24 07:28:14;;;;;;;0.43;0.20;;;;;;;12.99;54.20;97263.50;5093425;28;20375;-49
2022/04/24 07:30:40;;;;;;;2.00;0.60;;;;;;;13.20;53.69;97263.69;5093210;28;20032;-49
2022/04/24 07:33:06;;;;;;;4.35;1.55;;;;;;;13.40;53.12;97278.91;5091928;28;20016;-49
2022/04/24 07:35:37;;;;;;;3.35;0.70;;;;;;;13.53;52.68;97256.56;5093134;28;20030;-48
2022/04/24 07:38:03;;;;;;;2.95;0.80;;;;;;;13.50;53.25;97273.69;5092893;28;20083;-50
2022/04/24 07:40:35;;;;;;;6.35;4.05;;;;;;;13.55;53.30;97270.28;5093069;28;20024;-49
2022/04/24 07:43:07;;;;;;;1.23;0.77;;;;;;;13.61;53.06;97273.75;5093087;28;20033;-49
2022/04/24 07:45:41;;;;;;;14.95;11.93;;;;;;;13.72;53.09;97284.09;5093017;28;20027;-49
2022/04/24 07:48:09;;;;;;;2.05;0.80;;;;;;;14.01;52.38;97281.09;5092970;28;20081;-49
2022/04/24 07:50:43;;;;;;;3.33;0.73;;;;;;;14.09;51.67;97283.22;5091502;28;20389;-49
2022/04/24 07:53:09;;;;;;;2.47;0.50;;;;;;;14.16;51.79;97296.97;5092919;28;20106;-50
2022/04/24 07:55:35;;;;;;;0.95;0.35;;;;;;;14.17;51.03;97289.84;5092777;28;20069;-50
2022/04/24 07:58:01;;;;;;;0.20;0.20;;;;;;;14.13;50.96;97292.22;5092761;28;20052;-50
2022/04/24 08:00:30;;;;;;;3.92;0.88;;;;;;;13.95;51.42;97297.94;5092680;28;20024;-49
2022/04/24 08:03:06;;;;;;;3.60;0.70;;;;;;;13.86;51.94;97310.00;5092701;28;20016;-49
2022/04/24 08:05:38;;;;;;;1.33;0.60;;;;;;;13.74;51.38;97312.81;5091335;28;20066;-49
2022/04/24 08:08:07;;;;;;;1.95;0.47;;;;;;;13.69;51.99;97303.06;5092596;28;20077;-50
2022/04/24 08:10:36;;;;;;;0.80;0.50;;;;;;;13.88;52.04;97318.44;5092417;28;20059;-50
2022/04/24 08:13:05;;;;;;;8.43;1.95;;;;;;;14.12;52.27;97316.22;5092469;28;20111;-49
2022/04/24 08:15:32;;;;;;;1.63;0.75;;;;;;;14.31;51.34;97296.25;5091094;28;20023;-49
2022/04/24 08:17:58;;;;;;;2.75;0.70;;;;;;;14.31;50.54;97332.41;5091096;28;20402;-50
2022/04/24 08:20:24;;;;;;;0.73;0.52;;;;;;;14.28;50.86;97306.50;5092342;28;20035;-50
2022/04/24 08:22:52;;;;;;;0.63;0.57;;;;;;;14.37;50.15;97315.53;5092371;28;20551;-49
2022/04/24 08:25:20;;;;;;;1.50;0.40;;;;;;;14.58;50.13;97325.13;5092235;28;20402;-49
2022/04/24 08:27:47;;;;;;;2.88;0.60;;;;;;;14.82;49.18;97335.22;5091005;28;20504;-50
2022/04/24 08:30:14;;;;;;;0.98;0.40;;;;;;;14.85;48.65;97331.25;5092224;28;20021;-49
2022/04/24 08:32:42;;;;;;;8.40;1.77;;;;;;;14.93;48.23;97331.56;5091779;28;20035;-50
2022/04/24 08:35:10;;;;;;;0.68;0.38;;;;;;;15.09;48.19;97335.03;5090357;28;20027;-50
2022/04/24 08:37:37;;;;;;;6.63;1.05;;;;;;;15.42;48.33;97340.84;5090527;28;20044;-49
2022/04/24 08:40:07;;;;;;;2.50;1.45;;;;;;;15.93;47.59;97345.31;5092085;28;20051;-50
2022/04/24 08:42:33;;;;;;;1.02;0.45;;;;;;;16.83;45.81;97339.19;5092008;28;20028;-50
2022/04/24 08:45:00;;;;;;;1.20;0.65;;;;;;;17.53;44.10;97332.88;5090692;28;20024;-50
2022/04/24 08:47:27;;;;;;;0.68;0.50;;;;;;;18.20;42.05;97295.06;5090712;28;20518;-50
2022/04/24 08:49:58;;;;;;;1.90;1.02;;;;;;;18.00;41.90;97333.25;5092010;28;20076;-50
2022/04/24 08:52:25;;;;;;;6.85;2.05;;;;;;;17.69;41.43;97330.88;5091883;28;20482;-50
2022/04/24 08:54:52;;;;;;;1.75;1.00;;;;;;;17.24;41.90;97360.13;5091972;28;20069;-50
2022/04/24 08:57:18;;;;;;;0.40;0.40;;;;;;;16.88;42.55;97351.59;5091885;28;20024;-50
2022/04/24 08:59:46;;;;;;;0.85;0.80;;;;;;;17.09;43.07;97355.72;5091909;28;20494;-50
2022/04/24 09:02:12;;;;;;;2.20;1.05;;;;;;;17.70;42.03;97337.75;5091840;28;20058;-50
2022/04/24 09:04:39;;;;;;;2.90;0.70;;;;;;;18.49;41.01;97340.94;5091816;28;20103;-51
2022/04/24 09:07:10;;;;;;;1.85;0.90;;;;;;;19.12;39.47;97344.38;5090493;28;20020;-52
2022/04/24 09:09:53;;;;;;;1.08;0.75;;;;;;;19.51;38.93;97345.88;5090515;28;20409;-50
2022/04/24 09:12:24;;;;;;;2.80;0.60;;;;;;;20.14;37.53;97360.50;5091718;28;20050;-50
2022/04/24 09:14:54;;;;;;;5.18;0.77;;;;;;;21.15;36.14;97348.06;5091812;28;20028;-50
2022/04/24 09:17:28;;;;;;;5.35;0.80;;;;;;;22.11;34.09;97345.97;5090354;28;20115;-51
2022/04/24 09:19:56;;;;;;;2.97;0.50;;;;;;;22.43;33.15;97357.44;5092064;28;20032;-50
2022/04/24 09:22:22;;;;;;;4.50;0.90;;;;;;;22.19;33.32;97349.78;5091625;28;20065;-50
2022/04/24 09:24:49;;;;;;;2.42;0.75;;;;;;;22.37;33.42;97350.66;5091629;28;20020;-50
2022/04/24 09:27:35;;;;;;;1.85;0.50;;;;;;;23.08;32.55;97353.16;5091541;28;20120;-51
2022/04/24 09:30:04;;;;;;;2.60;0.70;;;;;;;23.61;31.92;97345.88;5091727;28;20062;-52
2022/04/24 09:32:31;;;;;;;5.18;0.90;;;;;;;24.64;29.82;97351.19;5091482;28;20024;-51
2022/04/24 09:34:58;;;;;;;3.45;1.20;;;;;;;25.04;29.69;97342.69;5091573;28;20020;-49
2022/04/24 09:37:24;;;;;;;1.88;0.68;;;;;;;25.56;28.15;97342.25;5091282;28;20052;-51
2022/04/24 09:39:55;;;;;;;1.90;0.80;;;;;;;25.88;27.54;97337.97;5091539;28;20050;-50
2022/04/24 09:42:21;;;;;;;1.52;0.47;;;;;;;25.94;27.30;97351.22;5091461;28;20032;-50
2022/04/24 09:44:49;;;;;;;5.18;1.88;;;;;;;25.81;27.20;97347.69;5092400;28;20024;-50
2022/04/24 09:47:18;;;;;;;5.30;0.90;;;;;;;25.73;28.02;97359.31;5095594;28;20024;-51
2022/04/24 09:49:47;;;;;;;2.90;1.50;;;;;;;26.24;27.21;97347.22;5094011;28;20031;-51
2022/04/24 09:52:15;;;;;;;2.55;0.50;;;;;;;26.02;27.41;97342.28;5095109;28;20111;-51
2022/04/24 09:54:44;;;;;;;0.90;0.30;;;;;;;26.02;26.46;97344.97;5093997;28;20028;-51
2022/04/24 09:57:11;;;;;;;4.55;1.38;;;;;;;26.22;27.16;97340.59;5095144;28;20027;-51
2022/04/24 09:59:43;;;;;;;2.83;0.60;;;;;;;26.27;25.50;97351.13;5093786;28;20510;-51
2022/04/24 10:02:10;;;;;;;1.55;0.20;;;;;;;25.83;26.12;97372.34;5095080;28;20032;-50
2022/04/24 10:04:38;;;;;;;0.45;0.30;;;;;;;25.27;26.62;97359.28;5094992;28;20016;-51
2022/04/24 10:07:08;;;;;;;0.40;0.17;;;;;;;25.42;26.37;97329.13;5094921;28;20031;-51
2022/04/24 10:09:44;;;;;;;0.28;0.28;;;;;;;25.14;26.67;97360.31;5093838;28;20477;-51
2022/04/24 10:12:15;;;;;;;2.30;0.32;;;;;;;24.58;27.17;97364.00;5094798;28;20036;-49
2022/04/24 10:14:57;;;;;;;3.10;2.15;;;;;;;23.98;29.36;97360.44;5094784;28;20110;-50
2022/04/24 10:17:47;;;;;;;2.30;0.30;;;;;;;24.28;28.58;97377.38;5094755;28;20034;-51
2022/04/24 10:20:34;;;;;;;3.35;1.40;;;;;;;23.75;28.81;97378.63;5093400;28;20127;-51
2022/04/24 10:23:00;;;;;;;2.05;0.55;;;;;;;23.66;29.34;97381.31;5094705;28;20490;-50
2022/04/24 10:25:36;;;;;;;1.70;0.30;;;;;;;23.59;28.79;97370.28;5094581;28;20464;-51
2022/04/24 10:28:18;;;;;;;0.47;0.30;;;;;;;23.01;28.39;97358.19;5094556;28;20027;-50
2022/04/24 10:30:57;;;;;;;0.98;0.50;;;;;;;22.10;30.01;97379.16;5093157;28;20024;-51
2022/04/24 10:33:25;;;;;;;0.65;0.35;;;;;;;21.82;30.84;97381.22;5094476;28;20073;-50
2022/04/24 10:35:54;;;;;;;1.70;0.50;;;;;;;21.64;31.29;97405.13;5094381;28;20030;-51
2022/04/24 10:38:22;;;;;;;0.75;0.35;;;;;;;21.78;30.31;97401.59;5094149;28;20079;-50
2022/04/24 10:41:05;;;;;;;1.20;0.20;;;;;;;22.03;31.11;97398.28;5094299;28;20031;-50
2022/04/24 10:43:41;;;;;;;0.60;0.60;;;;;;;22.71;30.11;97390.84;5094288;28;20398;-51
2022/04/24 10:46:18;;;;;;;2.30;0.38;;;;;;;22.16;30.26;97398.53;5092919;28;20032;-50
2022/04/24 10:48:46;;;;;;;3.30;0.65;;;;;;;21.77;31.83;97405.34;5092835;28;20028;-51
2022/04/24 10:51:12;;;;;;;1.73;0.45;;;;;;;21.84;31.15;97393.16;5093980;28;20432;-51
2022/04/24 10:53:52;;;;;;;1.17;0.30;;;;;;;21.78;31.80;97412.28;5092762;28;20055;-50
2022/04/24 10:56:19;;;;;;;3.50;2.00;;;;;;;22.26;32.38;97408.97;5093120;28;20020;-51
2022/04/24 10:58:45;;;;;;;2.97;0.50;;;;;;;22.63;30.80;97405.00;5093972;28;20058;-51
2022/04/24 11:01:14;;;;;;;3.63;0.50;;;;;;;22.01;31.95;97416.50;5092553;28;20052;-51
2022/04/24 11:03:44;;;;;;;0.63;0.22;;;;;;;22.30;31.59;97423.28;5093843;28;20036;-50
2022/04/24 11:06:23;;;;;;;4.13;0.80;;;;;;;22.90;31.18;97414.66;5094037;28;20027;-51
2022/04/24 11:08:50;;;;;;;2.08;0.40;;;;;;;23.23;29.85;97424.19;5092449;28;20474;-52
2022/04/24 11:11:18;;;;;;;1.60;0.30;;;;;;;22.98;30.65;97415.78;5093620;28;20535;-51
2022/04/24 11:13:44;;;;;;;1.75;0.70;;;;;;;22.79;30.71;97428.66;5092356;28;20071;-52
2022/04/24 11:16:12;;;;;;;0.90;0.35;;;;;;;22.41;30.62;97423.78;5093602;28;20024;-51
2022/04/24 11:18:38;;;;;;;0.60;0.30;;;;;;;22.27;31.38;97427.34;5093577;28;20020;-51
2022/04/24 11:21:06;;;;;;;0.73;0.30;;;;;;;22.64;31.25;97432.53;5093472;28;20489;-51
2022/04/24 11:23:39;;;;;;;1.20;0.50;;;;;;;23.45;30.53;97433.94;5093449;28;20056;-51
2022/04/24 11:26:09;;;;;;;4.57;1.40;;;;;;;23.80;28.97;97424.00;5093425;28;20022;-51
2022/04/24 11:28:38;;;;;;;2.20;0.35;;;;;;;23.64;28.86;97436.28;5093396;28;20020;-50
2022/04/24 11:31:16;;;;;;;0.32;0.10;;;;;;;23.79;29.34;97435.06;5093203;28;20020;-51
2022/04/24 11:33:56;;;;;;;1.67;0.50;;;;;;;24.10;29.18;97440.97;5091950;28;20039;-50
2022/04/24 11:36:24;;;;;;;1.20;0.22;;;;;;;24.78;27.63;97428.75;5091589;28;20034;-50